createdAt,value
2023-02-05T00:00:24.230Z,33.60
2023-02-05T00:02:52.256Z,29.45
2023-02-05T00:05:20.508Z,32.08
2023-02-05T00:07:49.944Z,31.58
2023-02-05T00:10:18.130Z,33.65
2023-02-05T00:12:46.207Z,34.45
2023-02-05T00:15:14.228Z,33.00
2023-02-05T00:17:42.728Z,35.45
2023-02-05T00:20:11.990Z,35.05
2023-02-05T00:22:40.072Z,29.63
2023-02-05T00:25:09.640Z,32.85
2023-02-05T00:27:37.725Z,29.75
2023-02-05T00:30:06.606Z,33.60
2023-02-05T00:32:35.240Z,33.90
2023-02-05T00:35:03.250Z,38.93
2023-02-05T00:37:31.302Z,32.53
2023-02-05T00:39:59.311Z,34.03
2023-02-05T00:42:28.717Z,30.30
2023-02-05T00:44:56.763Z,30.10
2023-02-05T00:47:25.035Z,32.75
2023-02-05T00:49:53.090Z,31.92
2023-02-05T00:52:21.135Z,33.30
2023-02-05T00:54:49.144Z,35.35
2023-02-05T00:57:17.212Z,33.05
2023-02-05T00:59:46.552Z,31.48
2023-02-05T01:02:14.665Z,32.03
2023-02-05T01:04:42.839Z,30.63
2023-02-05T01:07:10.856Z,30.73
2023-02-05T01:09:39.089Z,27.77
2023-02-05T01:12:07.478Z,26.63
2023-02-05T01:14:35.659Z,25.60
2023-02-05T01:17:05.090Z,26.90
2023-02-05T01:19:34.825Z,27.10
2023-02-05T01:22:02.880Z,22.52
2023-02-05T01:24:30.930Z,20.65
2023-02-05T01:26:58.961Z,20.88
2023-02-05T01:29:29.254Z,23.75
2023-02-05T01:31:57.898Z,20.80
2023-02-05T01:34:27.395Z,21.35
2023-02-05T01:36:55.523Z,19.17
2023-02-05T01:39:23.615Z,18.45
2023-02-05T01:41:51.622Z,19.98
2023-02-05T01:44:24.711Z,16.92
2023-02-05T01:46:54.093Z,16.88
2023-02-05T01:49:27.538Z,15.63
2023-02-05T01:52:00.871Z,15.57
2023-02-05T01:54:32.100Z,15.00
2023-02-05T01:57:04.770Z,17.05
2023-02-05T01:59:35.391Z,12.95
2023-02-05T02:02:06.353Z,13.15
2023-02-05T02:04:39.660Z,10.88
2023-02-05T02:07:11.991Z,14.90
2023-02-05T02:09:42.086Z,10.40
2023-02-05T02:12:11.527Z,13.88
2023-02-05T02:14:40.457Z,11.60
2023-02-05T02:17:09.253Z,10.60
2023-02-05T02:19:44.840Z,12.07
2023-02-05T02:22:51.028Z,11.13
2023-02-05T02:25:48.297Z,8.98
2023-02-05T02:28:23.422Z,10.70
2023-02-05T02:30:58.296Z,6.32
2023-02-05T02:33:32.731Z,7.70
2023-02-05T02:36:05.203Z,10.10
2023-02-05T02:38:36.066Z,8.52
2023-02-05T02:41:09.558Z,7.03
2023-02-05T02:43:44.884Z,6.78
2023-02-05T02:46:20.000Z,8.00
2023-02-05T02:48:50.927Z,5.60
2023-02-05T02:51:21.584Z,7.35
2023-02-05T02:53:55.387Z,4.25
2023-02-05T02:56:25.610Z,4.00
2023-02-05T02:58:59.422Z,6.93
2023-02-05T03:01:32.646Z,3.55
2023-02-05T03:04:04.959Z,3.85
2023-02-05T03:06:34.530Z,4.63
2023-02-05T03:09:06.292Z,5.18
2023-02-05T03:11:34.356Z,4.95
2023-02-05T03:14:03.826Z,5.38
2023-02-05T03:16:32.424Z,6.07
2023-02-05T03:19:02.863Z,6.40
2023-02-05T03:21:35.172Z,5.90
2023-02-05T03:24:03.223Z,5.53
2023-02-05T03:26:32.992Z,6.10
2023-02-05T03:29:06.060Z,5.72
2023-02-05T03:31:42.021Z,7.22
2023-02-05T03:34:20.558Z,7.82
2023-02-05T03:37:00.230Z,6.70
2023-02-05T03:39:33.938Z,7.15
2023-02-05T03:42:12.357Z,7.40
2023-02-05T03:45:05.877Z,10.90
2023-02-05T03:47:39.720Z,9.55
2023-02-05T03:50:19.048Z,9.63
2023-02-05T03:52:51.917Z,6.83
2023-02-05T03:55:23.475Z,12.43
2023-02-05T03:57:59.230Z,10.80
2023-02-05T04:00:29.450Z,15.27
2023-02-05T04:02:57.617Z,12.43
2023-02-05T04:05:25.690Z,9.95
2023-02-05T04:07:53.771Z,8.65
2023-02-05T04:10:21.831Z,15.10
2023-02-05T04:12:49.821Z,11.30
2023-02-05T04:15:18.002Z,14.00
2023-02-05T04:17:47.421Z,14.00
2023-02-05T04:20:15.624Z,13.07
2023-02-05T04:22:43.723Z,11.00
2023-02-05T04:25:11.775Z,13.75
2023-02-05T04:27:39.877Z,15.10
2023-02-05T04:30:08.760Z,13.43
2023-02-05T04:32:36.863Z,13.52
2023-02-05T04:35:07.092Z,7.20
2023-02-05T04:37:35.146Z,10.63
2023-02-05T04:40:03.171Z,9.93
2023-02-05T04:42:31.262Z,8.82
2023-02-05T04:45:00.192Z,6.43
2023-02-05T04:47:28.334Z,5.72
2023-02-05T04:49:56.337Z,4.75
2023-02-05T04:52:25.839Z,5.65
2023-02-05T04:54:53.906Z,8.30
2023-02-05T04:57:22.003Z,3.57
2023-02-05T04:59:50.054Z,4.60
2023-02-05T05:02:18.171Z,10.52
2023-02-05T05:04:46.201Z,6.43
2023-02-05T05:07:14.366Z,7.40
2023-02-05T05:09:44.076Z,5.63
2023-02-05T05:12:12.115Z,11.00
2023-02-05T05:14:40.223Z,8.60
2023-02-05T05:17:08.196Z,15.98
2023-02-05T05:19:36.484Z,12.40
2023-02-05T05:22:04.537Z,11.32
2023-02-05T05:24:32.551Z,17.75
2023-02-05T05:27:02.136Z,10.95
2023-02-05T05:29:30.224Z,13.68
2023-02-05T05:31:58.442Z,17.83
2023-02-05T05:34:26.610Z,12.13
2023-02-05T05:36:54.759Z,11.80
2023-02-05T05:39:40.545Z,15.45
2023-02-05T05:42:29.808Z,12.65
2023-02-05T05:44:58.060Z,11.10
2023-02-05T05:47:26.222Z,11.50
2023-02-05T05:49:54.256Z,7.70
2023-02-05T05:52:22.270Z,12.98
2023-02-05T05:54:50.227Z,9.60
2023-02-05T05:57:19.643Z,9.68
2023-02-05T05:59:47.653Z,9.10
2023-02-05T06:02:15.727Z,8.27
2023-02-05T06:04:43.831Z,10.43
2023-02-05T06:07:11.832Z,10.32
2023-02-05T06:09:39.896Z,11.70
2023-02-05T06:12:08.932Z,11.40
2023-02-05T06:14:38.964Z,14.20
2023-02-05T06:17:07.426Z,12.52
2023-02-05T06:19:35.428Z,13.32
2023-02-05T06:22:03.590Z,12.25
2023-02-05T06:24:31.723Z,9.18
2023-02-05T06:26:59.702Z,10.35
2023-02-05T06:29:27.635Z,10.35
2023-02-05T06:31:57.036Z,11.48
2023-02-05T06:34:25.065Z,10.10
2023-02-05T06:36:53.048Z,12.17
2023-02-05T06:39:21.008Z,10.43
2023-02-05T06:41:48.972Z,11.80
2023-02-05T06:44:17.026Z,19.02
2023-02-05T06:46:45.059Z,11.97
2023-02-05T06:49:14.442Z,14.13
2023-02-05T06:51:42.392Z,11.50
2023-02-05T06:54:10.397Z,11.70
2023-02-05T06:56:38.371Z,11.48
2023-02-05T06:59:06.396Z,10.50
2023-02-05T07:01:34.541Z,15.77
2023-02-05T07:04:02.642Z,16.90
2023-02-05T07:06:32.010Z,15.90
2023-02-05T07:09:00.449Z,16.60
2023-02-05T07:11:28.527Z,15.73
2023-02-05T07:13:56.487Z,17.15
2023-02-05T07:16:24.514Z,16.95
2023-02-05T07:18:53.370Z,13.30
2023-02-05T07:21:21.400Z,14.02
2023-02-05T07:23:50.719Z,18.52
2023-02-05T07:26:19.184Z,19.42
2023-02-05T07:28:47.454Z,14.32
2023-02-05T07:31:18.468Z,20.45
2023-02-05T07:33:47.113Z,19.40
2023-02-05T07:36:17.642Z,19.58
2023-02-05T07:38:46.730Z,17.95
2023-02-05T07:41:17.341Z,27.65
2023-02-05T07:43:45.869Z,21.00
2023-02-05T07:46:15.830Z,27.30
2023-02-05T07:48:43.925Z,14.80
2023-02-05T07:51:17.572Z,21.55
2023-02-05T07:53:45.611Z,18.38
2023-02-05T07:56:15.583Z,23.90
2023-02-05T07:58:44.181Z,17.58
2023-02-05T08:01:12.316Z,15.65
2023-02-05T08:03:40.255Z,21.73
2023-02-05T08:06:10.284Z,26.48
2023-02-05T08:08:38.327Z,17.75
2023-02-05T08:11:07.744Z,17.25
2023-02-05T08:13:37.088Z,25.60
2023-02-05T08:16:06.917Z,20.50
2023-02-05T08:18:35.063Z,24.17
2023-02-05T08:21:03.054Z,21.77
2023-02-05T08:23:30.984Z,20.33
2023-02-05T08:26:00.126Z,25.50
2023-02-05T08:28:29.827Z,21.92
2023-02-05T08:30:59.323Z,28.87
2023-02-05T08:33:27.546Z,21.13
2023-02-05T08:35:55.484Z,31.50
2023-02-05T08:38:23.450Z,26.40
2023-02-05T08:40:51.947Z,25.50
2023-02-05T08:43:19.896Z,34.17
2023-02-05T08:45:48.798Z,25.13
2023-02-05T08:48:18.217Z,28.92
2023-02-05T08:50:47.317Z,26.70
2023-02-05T08:53:15.322Z,31.23
2023-02-05T08:55:43.277Z,30.65
2023-02-05T08:58:11.264Z,27.80
2023-02-05T09:00:40.124Z,26.60
2023-02-05T09:03:08.796Z,29.80
2023-02-05T09:05:39.951Z,29.10
2023-02-05T09:08:08.090Z,27.65
2023-02-05T09:10:36.147Z,33.78
2023-02-05T09:13:04.104Z,30.17
2023-02-05T09:15:32.292Z,21.92
2023-02-05T09:18:00.326Z,26.60
2023-02-05T09:20:28.267Z,29.67
2023-02-05T09:22:57.605Z,27.73
2023-02-05T09:25:25.848Z,26.77
2023-02-05T09:27:53.848Z,26.63
2023-02-05T09:30:21.930Z,22.77
2023-02-05T09:32:50.009Z,29.17
2023-02-05T09:35:18.552Z,34.75
2023-02-05T09:37:46.490Z,30.53
2023-02-05T09:40:22.079Z,34.65
2023-02-05T09:43:01.117Z,32.70
2023-02-05T09:45:43.667Z,33.80
2023-02-05T09:48:37.942Z,28.48
2023-02-05T09:51:09.431Z,26.58
2023-02-05T09:53:43.957Z,28.50
2023-02-05T09:56:15.896Z,31.90
2023-02-05T09:58:47.367Z,27.52
2023-02-05T10:01:21.270Z,24.33
2023-02-05T10:03:54.249Z,27.20
2023-02-05T10:06:39.487Z,26.17
2023-02-05T10:09:23.316Z,23.23
2023-02-05T10:12:00.589Z,30.52
2023-02-05T10:14:43.074Z,26.42
2023-02-05T10:17:29.556Z,25.85
2023-02-05T10:20:22.774Z,30.80
2023-02-05T10:23:06.969Z,24.77
2023-02-05T10:25:54.964Z,23.70
2023-02-05T10:28:36.726Z,26.00
2023-02-05T10:31:12.224Z,27.42
2023-02-05T10:33:49.557Z,23.67
2023-02-05T10:36:22.744Z,23.30
2023-02-05T10:38:52.868Z,24.63
2023-02-05T10:41:26.510Z,27.95
2023-02-05T10:44:04.711Z,23.92
2023-02-05T10:46:36.423Z,31.97
2023-02-05T10:49:11.546Z,25.13
2023-02-05T10:51:42.319Z,30.40
2023-02-05T10:54:20.138Z,23.45
2023-02-05T10:56:49.144Z,25.35
2023-02-05T10:59:24.692Z,23.90
2023-02-05T11:01:53.489Z,26.80
2023-02-05T11:04:31.275Z,27.17
2023-02-05T11:06:59.338Z,20.65
2023-02-05T11:09:32.995Z,22.27
2023-02-05T11:12:03.269Z,22.95
2023-02-05T11:14:36.338Z,28.83
2023-02-05T11:17:09.462Z,27.90
2023-02-05T11:19:37.747Z,26.45
2023-02-05T11:22:06.637Z,20.88
2023-02-05T11:24:36.512Z,25.30
2023-02-05T11:27:30.389Z,26.60
2023-02-05T11:30:28.660Z,22.35
2023-02-05T11:33:27.995Z,30.23
2023-02-05T11:35:58.414Z,29.90
2023-02-05T11:38:32.133Z,22.98
2023-02-05T11:41:03.212Z,24.98
2023-02-05T11:43:33.591Z,23.80
2023-02-05T11:46:05.646Z,23.83
2023-02-05T11:48:39.339Z,20.85
2023-02-05T11:51:10.382Z,25.15
2023-02-05T11:53:39.693Z,25.30
2023-02-05T11:56:12.237Z,25.48
2023-02-05T11:58:40.431Z,21.38
2023-02-05T12:01:23.930Z,21.95
2023-02-05T12:04:00.629Z,20.85
2023-02-05T12:06:36.482Z,22.13
2023-02-05T12:09:05.143Z,20.05
2023-02-05T12:12:11.166Z,18.65
2023-02-05T12:14:43.466Z,22.75
2023-02-05T12:17:32.821Z,17.90
2023-02-05T12:20:13.598Z,19.55
2023-02-05T12:23:19.294Z,24.47
2023-02-05T12:26:07.270Z,23.35
2023-02-05T12:28:42.591Z,24.60
2023-02-05T12:31:22.257Z,21.10
2023-02-05T12:34:06.058Z,22.92
2023-02-05T12:36:49.420Z,16.77
2023-02-05T12:39:29.315Z,21.05
2023-02-05T12:42:06.856Z,18.90
2023-02-05T12:45:03.515Z,19.40
2023-02-05T12:47:49.875Z,17.67
2023-02-05T12:50:44.358Z,14.40
2023-02-05T12:53:34.678Z,14.50
2023-02-05T12:56:20.123Z,18.45
2023-02-05T12:58:55.522Z,15.30
2023-02-05T13:01:29.730Z,16.53
2023-02-05T13:04:01.701Z,16.95
2023-02-05T13:06:35.080Z,19.77
2023-02-05T13:09:07.534Z,20.38
2023-02-05T13:11:40.152Z,14.15
2023-02-05T13:14:15.267Z,17.48
2023-02-05T13:16:47.971Z,20.15
2023-02-05T13:19:25.385Z,24.03
2023-02-05T13:22:15.815Z,21.15
2023-02-05T13:25:06.863Z,18.50
2023-02-05T13:27:56.959Z,19.33
2023-02-05T13:30:31.849Z,20.63
2023-02-05T13:33:02.824Z,20.80
2023-02-05T13:35:36.141Z,19.20
2023-02-05T13:38:28.415Z,21.80
2023-02-05T13:41:24.249Z,19.00
2023-02-05T13:44:32.658Z,19.55
2023-02-05T13:47:30.619Z,21.80
2023-02-05T13:50:23.452Z,17.17
2023-02-05T13:53:39.367Z,17.75
2023-02-05T13:56:24.580Z,26.83
2023-02-05T13:58:54.371Z,19.10
2023-02-05T14:01:26.258Z,22.75
2023-02-05T14:03:59.172Z,23.58
2023-02-05T14:06:31.619Z,14.98
2023-02-05T14:09:04.495Z,27.70
2023-02-05T14:11:55.804Z,21.85
2023-02-05T14:14:28.270Z,20.65
2023-02-05T14:16:57.487Z,18.00
2023-02-05T14:19:28.439Z,22.58
2023-02-05T14:22:02.739Z,23.90
2023-02-05T14:24:43.522Z,16.77
2023-02-05T14:27:47.876Z,25.80
2023-02-05T14:30:52.189Z,23.65
2023-02-05T14:33:38.353Z,23.60
2023-02-05T14:36:33.070Z,22.88
2023-02-05T14:39:08.098Z,24.83
2023-02-05T14:41:51.401Z,19.52
2023-02-05T14:44:23.145Z,25.90
2023-02-05T14:46:58.503Z,26.15
2023-02-05T14:49:28.902Z,24.48
2023-02-05T14:52:00.606Z,22.20
2023-02-05T14:54:31.446Z,18.42
2023-02-05T14:57:14.104Z,20.52
2023-02-05T14:59:49.521Z,21.80
2023-02-05T15:02:55.253Z,27.77
2023-02-05T15:05:31.506Z,31.02
2023-02-05T15:08:10.334Z,23.57
2023-02-05T15:10:46.295Z,19.50
2023-02-05T15:13:17.408Z,20.30
2023-02-05T15:16:08.505Z,25.60
2023-02-05T15:18:41.325Z,21.35
2023-02-05T15:21:16.668Z,25.20
2023-02-05T15:23:47.364Z,23.13
2023-02-05T15:26:24.735Z,27.15
2023-02-05T15:28:59.868Z,23.95
2023-02-05T15:31:33.994Z,21.75
2023-02-05T15:34:29.690Z,25.83
2023-02-05T15:37:04.537Z,29.42
2023-02-05T15:39:38.830Z,27.80
2023-02-05T15:42:07.913Z,29.00
2023-02-05T15:44:37.759Z,28.30
2023-02-05T15:47:11.969Z,33.47
2023-02-05T15:49:44.279Z,27.77
2023-02-05T15:52:18.788Z,20.98
2023-02-05T15:54:46.836Z,24.17
2023-02-05T15:57:21.488Z,26.42
2023-02-05T15:59:52.021Z,25.38
2023-02-05T16:02:22.481Z,25.60
2023-02-05T16:04:55.921Z,31.63
2023-02-05T16:07:26.353Z,24.93
2023-02-05T16:09:57.146Z,28.52
2023-02-05T16:12:25.489Z,24.90
2023-02-05T16:15:02.552Z,28.05
2023-02-05T16:17:37.222Z,28.80
2023-02-05T16:20:17.749Z,29.63
2023-02-05T16:22:48.626Z,26.35
2023-02-05T16:25:28.388Z,34.65
2023-02-05T16:27:57.408Z,29.87
2023-02-05T16:30:32.468Z,28.07
2023-02-05T16:33:02.669Z,30.00
2023-02-05T16:35:35.168Z,28.90
2023-02-05T16:38:08.811Z,23.02
2023-02-05T16:40:40.345Z,28.77
2023-02-05T16:43:26.211Z,23.98
2023-02-05T16:46:22.972Z,29.85
2023-02-05T16:48:52.081Z,24.87
2023-02-05T16:51:38.651Z,29.38
2023-02-05T16:54:29.747Z,22.88
2023-02-05T16:57:03.806Z,32.50
2023-02-05T16:59:34.507Z,24.00
2023-02-05T17:02:04.458Z,25.00
2023-02-05T17:04:35.612Z,29.38
2023-02-05T17:07:05.481Z,23.73
2023-02-05T17:09:36.189Z,28.45
2023-02-05T17:12:26.365Z,28.15
2023-02-05T17:14:55.639Z,24.27
2023-02-05T17:17:26.425Z,22.17
2023-02-05T17:20:06.427Z,24.17
2023-02-05T17:22:35.165Z,26.83
2023-02-05T17:25:05.696Z,29.73
2023-02-05T17:27:37.377Z,32.50
2023-02-05T17:30:11.153Z,29.17
2023-02-05T17:32:40.696Z,24.38
2023-02-05T17:35:14.504Z,32.40
2023-02-05T17:37:42.413Z,28.02
2023-02-05T17:40:13.140Z,25.08
2023-02-05T17:42:41.115Z,29.52
2023-02-05T17:45:19.295Z,34.03
2023-02-05T17:47:48.875Z,27.55
2023-02-05T17:50:18.075Z,26.42
2023-02-05T17:52:46.496Z,30.42
2023-02-05T17:55:16.504Z,23.02
2023-02-05T17:57:45.101Z,24.73
2023-02-05T18:00:17.138Z,21.42
2023-02-05T18:02:45.334Z,29.25
2023-02-05T18:05:14.723Z,29.35
2023-02-05T18:07:45.666Z,19.85
2023-02-05T18:10:15.295Z,27.45
2023-02-05T18:12:43.341Z,21.88
2023-02-05T18:15:12.446Z,29.67
2023-02-05T18:17:41.824Z,25.17
2023-02-05T18:20:12.460Z,28.98
2023-02-05T18:22:42.137Z,27.00
2023-02-05T18:25:10.494Z,26.50
2023-02-05T18:27:38.608Z,28.63
2023-02-05T18:30:08.143Z,26.15
2023-02-05T18:32:36.156Z,23.95
2023-02-05T18:35:04.187Z,29.08
2023-02-05T18:37:32.326Z,26.05
2023-02-05T18:40:01.750Z,24.95
2023-02-05T18:42:31.024Z,30.48
2023-02-05T18:44:59.149Z,23.42
2023-02-05T18:47:27.154Z,20.20
2023-02-05T18:49:55.431Z,23.23
2023-02-05T18:52:26.583Z,22.65
2023-02-05T18:54:54.634Z,24.50
2023-02-05T18:57:24.183Z,27.55
2023-02-05T18:59:52.175Z,26.80
2023-02-05T19:02:20.303Z,31.85
2023-02-05T19:04:52.091Z,26.03
2023-02-05T19:07:21.412Z,20.92
2023-02-05T19:09:50.607Z,28.10
2023-02-05T19:12:18.951Z,26.45
2023-02-05T19:14:50.131Z,25.20
2023-02-05T19:17:18.204Z,33.33
2023-02-05T19:19:46.494Z,30.73
2023-02-05T19:22:14.502Z,29.23
2023-02-05T19:24:43.374Z,24.63
2023-02-05T19:27:11.612Z,26.07
2023-02-05T19:29:40.966Z,30.05
2023-02-05T19:32:10.490Z,24.38
2023-02-05T19:34:40.507Z,25.40
2023-02-05T19:37:11.150Z,27.00
2023-02-05T19:39:40.086Z,26.08
2023-02-05T19:42:08.196Z,24.40
2023-02-05T19:44:36.167Z,24.48
2023-02-05T19:47:04.106Z,25.75
2023-02-05T19:49:33.418Z,22.27
2023-02-05T19:52:01.474Z,30.25
2023-02-05T19:54:30.407Z,29.63
2023-02-05T19:56:58.516Z,24.48
2023-02-05T19:59:26.571Z,28.13
2023-02-05T20:01:54.531Z,25.20
2023-02-05T20:04:24.823Z,25.10
2023-02-05T20:06:58.666Z,24.92
2023-02-05T20:09:27.644Z,27.90
2023-02-05T20:11:56.074Z,29.98
2023-02-05T20:14:24.810Z,27.15
2023-02-05T20:16:53.288Z,28.35
2023-02-05T20:19:21.358Z,27.25
2023-02-05T20:21:49.734Z,20.02
2023-02-05T20:24:19.196Z,30.00
2023-02-05T20:26:48.968Z,22.30
2023-02-05T20:29:34.840Z,26.75
2023-02-05T20:32:02.929Z,24.02
2023-02-05T20:34:34.056Z,24.85
2023-02-05T20:37:05.608Z,28.48
2023-02-05T20:39:39.572Z,29.50
2023-02-05T20:42:07.618Z,22.65
2023-02-05T20:44:37.205Z,27.58
2023-02-05T20:47:07.187Z,20.90
2023-02-05T20:49:36.052Z,26.50
2023-02-05T20:52:04.130Z,26.23
2023-02-05T20:54:32.240Z,25.05
2023-02-05T20:57:02.021Z,31.98
2023-02-05T20:59:31.503Z,26.13
2023-02-05T21:02:00.313Z,31.98
2023-02-05T21:04:28.376Z,22.13
2023-02-05T21:06:56.453Z,25.60
2023-02-05T21:09:27.141Z,25.10
2023-02-05T21:11:55.476Z,32.55
2023-02-05T21:14:25.085Z,24.23
2023-02-05T21:16:53.206Z,22.50
2023-02-05T21:19:21.384Z,22.60
2023-02-05T21:21:50.106Z,25.17
2023-02-05T21:24:18.469Z,27.13
2023-02-05T21:26:48.491Z,24.08
2023-02-05T21:29:18.287Z,25.17
2023-02-05T21:31:49.648Z,26.95
2023-02-05T21:34:21.711Z,27.88
2023-02-05T21:36:50.168Z,23.45
2023-02-05T21:39:20.117Z,26.80
2023-02-05T21:41:50.527Z,23.37
2023-02-05T21:44:18.662Z,29.23
2023-02-05T21:46:48.032Z,25.27
2023-02-05T21:49:16.038Z,29.67
2023-02-05T21:51:44.110Z,26.43
2023-02-05T21:54:12.701Z,23.73
2023-02-05T21:56:42.303Z,29.52
2023-02-05T21:59:11.477Z,21.30
2023-02-05T22:01:40.103Z,24.98
2023-02-05T22:04:13.125Z,28.85
2023-02-05T22:06:41.448Z,24.95
2023-02-05T22:09:11.611Z,24.13
2023-02-05T22:11:40.556Z,29.30
2023-02-05T22:14:09.520Z,28.40
2023-02-05T22:16:38.075Z,30.33
2023-02-05T22:19:07.023Z,28.37
2023-02-05T22:21:37.835Z,29.63
2023-02-05T22:24:07.591Z,28.50
2023-02-05T22:26:37.542Z,27.73
2023-02-05T22:29:07.305Z,22.38
2023-02-05T22:31:35.902Z,23.10
2023-02-05T22:34:04.519Z,30.80
2023-02-05T22:36:34.284Z,32.22
2023-02-05T22:39:05.467Z,23.95
2023-02-05T22:41:35.643Z,23.23
2023-02-05T22:44:04.917Z,20.08
2023-02-05T22:46:34.557Z,26.27
2023-02-05T22:49:03.843Z,30.15
2023-02-05T22:51:34.257Z,24.40
2023-02-05T22:54:04.254Z,20.13
2023-02-05T22:56:32.683Z,24.27
2023-02-05T22:59:03.046Z,23.30
2023-02-05T23:01:33.165Z,25.50
2023-02-05T23:04:02.382Z,23.80
2023-02-05T23:06:32.379Z,24.60
2023-02-05T23:09:02.224Z,27.15
2023-02-05T23:11:32.716Z,13.85
2023-02-05T23:14:02.781Z,25.98
2023-02-05T23:16:32.661Z,27.77
2023-02-05T23:19:03.598Z,20.52
2023-02-05T23:21:33.870Z,23.02
2023-02-05T23:24:01.841Z,22.35
2023-02-05T23:26:33.912Z,23.42
2023-02-05T23:29:02.557Z,19.80
2023-02-05T23:31:30.728Z,22.90
2023-02-05T23:33:58.868Z,23.10
2023-02-05T23:36:27.014Z,25.83
2023-02-05T23:38:55.094Z,19.02
2023-02-05T23:41:36.639Z,20.50
2023-02-05T23:44:08.946Z,23.45
2023-02-05T23:46:37.646Z,26.80
2023-02-05T23:49:06.092Z,24.57
2023-02-05T23:51:34.388Z,21.25
2023-02-05T23:54:02.935Z,18.75
2023-02-05T23:56:30.956Z,18.23
2023-02-05T23:58:58.925Z,18.70
